createdAt,value
2023-04-17T00:02:12.179Z,78.56
2023-04-17T00:07:14.823Z,78.76
2023-04-17T00:12:16.971Z,79.21
2023-04-17T00:17:19.108Z,79.03
2023-04-17T00:22:21.217Z,79.13
2023-04-17T00:27:23.925Z,78.95
2023-04-17T00:32:25.858Z,79.42
2023-04-17T00:37:27.879Z,79.51
2023-04-17T00:42:29.687Z,79.20
2023-04-17T00:47:33.195Z,79.72
2023-04-17T00:52:35.078Z,79.69
2023-04-17T00:57:37.436Z,79.70
2023-04-17T01:02:40.215Z,79.74
2023-04-17T01:07:44.021Z,79.91
2023-04-17T01:12:49.419Z,80.32
2023-04-17T01:17:52.412Z,80.30
2023-04-17T01:22:54.200Z,80.44
2023-04-17T01:27:57.317Z,80.51
2023-04-17T01:33:01.131Z,80.76
2023-04-17T01:38:04.190Z,80.88
2023-04-17T01:43:06.155Z,80.50
2023-04-17T01:48:08.288Z,80.72
2023-04-17T01:53:10.381Z,81.00
2023-04-17T01:58:12.320Z,81.29
2023-04-17T02:03:14.677Z,81.23
2023-04-17T02:08:17.335Z,81.77
2023-04-17T02:13:19.213Z,81.75
2023-04-17T02:18:21.285Z,82.14
2023-04-17T02:23:23.222Z,81.99
2023-04-17T02:28:25.638Z,82.27
2023-04-17T02:33:28.200Z,82.13
2023-04-17T02:38:30.678Z,82.09
2023-04-17T02:43:32.886Z,82.20
2023-04-17T02:48:34.818Z,82.34
2023-04-17T02:53:36.650Z,82.93
2023-04-17T02:58:39.756Z,82.70
2023-04-17T03:03:43.205Z,82.80
2023-04-17T03:08:47.932Z,82.97
2023-04-17T03:13:50.723Z,83.00
2023-04-17T03:18:52.787Z,83.26
2023-04-17T03:23:54.689Z,83.27
2023-04-17T03:28:58.128Z,83.66
2023-04-17T03:34:00.659Z,83.59
2023-04-17T03:39:03.158Z,83.78
2023-04-17T03:44:05.832Z,83.73
2023-04-17T03:49:08.227Z,83.70
2023-04-17T03:54:10.404Z,84.08
2023-04-17T03:59:12.515Z,84.07
2023-04-17T04:04:17.547Z,84.15
2023-04-17T04:09:27.484Z,84.11
2023-04-17T04:14:29.832Z,84.50
2023-04-17T04:19:31.952Z,84.59
2023-04-17T04:24:35.349Z,84.51
2023-04-17T04:29:38.821Z,84.19
2023-04-17T04:34:44.794Z,84.68
2023-04-17T04:39:48.021Z,84.42
2023-04-17T04:44:50.698Z,84.69
2023-04-17T04:49:53.947Z,84.82
2023-04-17T04:54:56.364Z,84.82
2023-04-17T04:59:59.599Z,84.88
2023-04-17T05:05:11.160Z,84.79
2023-04-17T05:10:13.822Z,84.72
2023-04-17T05:15:20.421Z,84.47
2023-04-17T05:20:23.468Z,84.28
2023-04-17T05:25:29.107Z,84.12
2023-04-17T05:30:32.268Z,83.71
2023-04-17T05:35:43.828Z,83.92
2023-04-17T05:40:46.268Z,83.67
2023-04-17T05:45:49.091Z,83.88
2023-04-17T05:50:51.402Z,83.79
2023-04-17T05:55:53.198Z,83.53
2023-04-17T06:00:56.891Z,83.88
2023-04-17T06:06:00.250Z,83.56
2023-04-17T06:11:02.390Z,83.10
2023-04-17T06:16:05.767Z,82.97
2023-04-17T06:21:08.244Z,82.64
2023-04-17T06:26:12.355Z,82.57
2023-04-17T06:31:15.862Z,82.39
2023-04-17T06:36:18.094Z,82.44
2023-04-17T06:41:31.052Z,82.67
2023-04-17T06:46:33.033Z,82.08
2023-04-17T06:51:39.040Z,81.78
2023-04-17T06:56:41.097Z,80.95
2023-04-17T07:01:43.107Z,80.41
2023-04-17T07:06:45.231Z,80.45
2023-04-17T07:11:47.259Z,80.23
2023-04-17T07:16:49.272Z,79.99
2023-04-17T07:21:52.034Z,80.14
2023-04-17T07:26:53.995Z,79.97
2023-04-17T07:31:56.543Z,79.86
2023-04-17T07:36:58.581Z,79.87
2023-04-17T07:42:03.037Z,79.58
2023-04-17T07:47:04.964Z,79.56
2023-04-17T07:52:07.107Z,79.59
2023-04-17T07:57:09.029Z,79.78
2023-04-17T08:02:11.260Z,79.56
2023-04-17T08:07:13.194Z,79.78
2023-04-17T08:12:15.207Z,79.40
2023-04-17T08:17:20.346Z,79.13
2023-04-17T08:22:24.244Z,78.29
2023-04-17T08:27:26.209Z,77.72
2023-04-17T08:32:28.610Z,77.55
2023-04-17T08:37:34.253Z,77.62
2023-04-17T08:42:38.146Z,77.28
2023-04-17T08:47:42.283Z,77.41
2023-04-17T08:52:47.661Z,76.85
2023-04-17T08:58:04.102Z,77.11
2023-04-17T09:03:08.527Z,77.03
2023-04-17T09:08:13.377Z,75.97
2023-04-17T09:13:25.056Z,76.17
2023-04-17T09:18:31.154Z,76.28
2023-04-17T09:23:56.165Z,75.79
2023-04-17T09:29:11.375Z,76.06
2023-04-17T09:34:15.455Z,75.75
2023-04-17T09:39:20.941Z,75.77
2023-04-17T09:44:28.455Z,75.49
2023-04-17T09:49:35.130Z,74.72
2023-04-17T09:54:40.010Z,74.84
2023-04-17T09:59:47.911Z,75.01
2023-04-17T10:04:49.854Z,75.09
2023-04-17T10:09:51.999Z,74.80
2023-04-17T10:14:55.106Z,74.40
2023-04-17T10:20:20.296Z,73.95
2023-04-17T10:25:29.759Z,73.66
2023-04-17T10:30:54.902Z,73.39
2023-04-17T10:35:57.821Z,73.38
2023-04-17T10:41:02.700Z,73.19
2023-04-17T10:46:15.222Z,72.18
2023-04-17T10:51:29.299Z,70.84
2023-04-17T10:56:38.685Z,69.89
2023-04-17T11:01:58.343Z,68.97
2023-04-17T11:07:01.053Z,67.81
2023-04-17T11:12:03.255Z,68.08
2023-04-17T11:17:05.609Z,67.81
2023-04-17T11:22:09.688Z,67.06
2023-04-17T11:27:11.800Z,67.21
2023-04-17T11:32:13.740Z,67.04
2023-04-17T11:37:16.221Z,67.44
2023-04-17T11:42:27.802Z,68.25
2023-04-17T11:47:30.067Z,68.52
2023-04-17T11:52:32.288Z,69.24
2023-04-17T11:57:43.653Z,69.45
2023-04-17T12:02:45.677Z,70.34
2023-04-17T12:07:47.916Z,70.63
2023-04-17T12:12:49.840Z,70.81
2023-04-17T12:17:51.962Z,71.06
2023-04-17T12:22:53.810Z,71.05
2023-04-17T12:27:59.163Z,71.26
2023-04-17T12:33:01.787Z,71.12
2023-04-17T12:38:04.194Z,71.18
2023-04-17T12:43:08.715Z,71.26
2023-04-17T12:48:11.511Z,71.42
2023-04-17T12:53:14.605Z,71.28
2023-04-17T12:58:16.881Z,71.08
2023-04-17T13:03:18.887Z,70.34
2023-04-17T13:08:21.521Z,70.17
2023-04-17T13:13:23.559Z,70.25
2023-04-17T13:18:26.491Z,70.75
2023-04-17T13:23:28.440Z,70.59
2023-04-17T13:28:30.519Z,70.98
2023-04-17T13:33:32.438Z,71.36
2023-04-17T13:38:35.074Z,71.40
2023-04-17T13:43:37.101Z,71.52
2023-04-17T13:48:39.368Z,72.02
2023-04-17T13:53:41.199Z,71.85
2023-04-17T13:58:44.540Z,71.99
2023-04-17T14:03:47.417Z,71.68
2023-04-17T14:08:49.845Z,71.37
2023-04-17T14:13:51.820Z,70.85
2023-04-17T14:18:54.099Z,70.33
2023-04-17T14:23:56.991Z,70.23
2023-04-17T14:28:59.017Z,70.33
2023-04-17T14:34:00.799Z,70.93
2023-04-17T14:39:03.374Z,71.49
2023-04-17T14:44:05.376Z,71.96
2023-04-17T14:49:08.661Z,72.64
2023-04-17T14:54:10.518Z,73.14
2023-04-17T14:59:12.729Z,73.29
2023-04-17T15:04:15.130Z,73.04
2023-04-17T15:09:17.335Z,72.95
2023-04-17T15:14:19.974Z,72.23
2023-04-17T15:19:21.992Z,72.56
2023-04-17T15:24:23.779Z,73.15
2023-04-17T15:29:25.841Z,73.74
2023-04-17T15:34:27.669Z,74.05
2023-04-17T15:39:30.416Z,74.40
2023-04-17T15:44:34.090Z,74.13
2023-04-17T15:49:36.074Z,74.52
2023-04-17T15:54:37.936Z,74.81
2023-04-17T15:59:40.115Z,75.37
2023-04-17T16:04:43.873Z,75.77
2023-04-17T16:09:48.048Z,76.11
2023-04-17T16:14:50.778Z,76.54
2023-04-17T16:19:52.947Z,76.50
2023-04-17T16:24:54.764Z,76.42
2023-04-17T16:29:56.837Z,76.75
2023-04-17T16:34:59.168Z,76.72
2023-04-17T16:40:05.328Z,76.88
2023-04-17T16:45:08.314Z,77.17
2023-04-17T16:50:12.556Z,77.24
2023-04-17T16:55:17.148Z,77.38
2023-04-17T17:00:20.206Z,77.81
2023-04-17T17:05:22.223Z,78.12
2023-04-17T17:10:24.238Z,78.34
2023-04-17T17:15:26.569Z,78.54
2023-04-17T17:20:28.735Z,79.10
2023-04-17T17:25:30.733Z,79.28
2023-04-17T17:30:32.837Z,79.43
2023-04-17T17:35:34.770Z,79.76
2023-04-17T17:40:37.452Z,80.11
2023-04-17T17:45:39.518Z,80.43
2023-04-17T17:50:42.943Z,80.57
2023-04-17T17:55:53.173Z,80.84
2023-04-17T18:00:55.317Z,81.17
2023-04-17T18:05:57.263Z,81.74
2023-04-17T18:11:01.616Z,81.87
2023-04-17T18:16:05.019Z,82.25
2023-04-17T18:21:08.304Z,82.38
2023-04-17T18:26:10.281Z,82.55
2023-04-17T18:31:12.585Z,83.04
2023-04-17T18:36:14.394Z,83.13
2023-04-17T18:41:16.736Z,83.59
2023-04-17T18:46:18.784Z,83.57
2023-04-17T18:51:21.818Z,83.74
2023-04-17T18:56:26.787Z,83.91
2023-04-17T19:01:29.153Z,83.99
2023-04-17T19:06:31.719Z,84.38
2023-04-17T19:11:34.119Z,84.34
2023-04-17T19:16:36.265Z,84.42
2023-04-17T19:21:38.480Z,84.43
2023-04-17T19:26:40.796Z,84.81
2023-04-17T19:31:43.452Z,84.68
2023-04-17T19:36:45.422Z,85.17
2023-04-17T19:41:51.061Z,84.95
2023-04-17T19:46:53.302Z,85.05
2023-04-17T19:51:55.356Z,85.47
2023-04-17T19:56:57.212Z,85.58
2023-04-17T20:01:59.678Z,85.31
2023-04-17T20:07:02.230Z,85.78
2023-04-17T20:12:05.807Z,85.79
2023-04-17T20:17:08.715Z,85.58
2023-04-17T20:22:10.964Z,85.90
2023-04-17T20:27:12.792Z,86.34
2023-04-17T20:32:15.296Z,86.55
2023-04-17T20:37:17.193Z,86.32
2023-04-17T20:42:19.591Z,86.49
2023-04-17T20:47:21.561Z,86.42
2023-04-17T20:52:23.916Z,86.53
2023-04-17T20:57:25.967Z,86.94
2023-04-17T21:02:28.165Z,87.43
2023-04-17T21:07:31.020Z,87.37
2023-04-17T21:12:35.324Z,87.13
2023-04-17T21:17:39.446Z,87.41
2023-04-17T21:22:41.842Z,87.86
2023-04-17T21:27:43.834Z,87.68
2023-04-17T21:32:47.611Z,87.84
2023-04-17T21:37:49.704Z,88.10
2023-04-17T21:42:52.945Z,88.28
2023-04-17T21:47:54.908Z,87.93
2023-04-17T21:52:58.531Z,88.53
2023-04-17T21:58:00.632Z,88.63
2023-04-17T22:03:03.341Z,88.27
2023-04-17T22:08:05.299Z,88.94
2023-04-17T22:13:07.363Z,88.52
2023-04-17T22:18:09.349Z,88.97
2023-04-17T22:23:11.265Z,88.61
2023-04-17T22:28:13.144Z,88.58
2023-04-17T22:33:15.526Z,88.52
2023-04-17T22:38:18.988Z,88.57
2023-04-17T22:43:21.040Z,88.69
2023-04-17T22:48:24.691Z,88.62
2023-04-17T22:53:26.937Z,88.85
2023-04-17T22:58:31.985Z,88.91
2023-04-17T23:03:35.066Z,88.57
2023-04-17T23:08:37.556Z,88.76
2023-04-17T23:13:45.780Z,88.71
2023-04-17T23:18:47.998Z,88.78
2023-04-17T23:23:51.670Z,88.76
2023-04-17T23:28:53.623Z,88.88
2023-04-17T23:33:55.891Z,89.19
2023-04-17T23:38:57.746Z,89.23
2023-04-17T23:44:00.593Z,89.20
2023-04-17T23:49:06.709Z,89.46
2023-04-17T23:54:10.452Z,89.15
2023-04-17T23:59:12.288Z,89.35
